Terminal Aerodrome Forecast
Issued by NWS Pocatello, ID

Home | Current Version | Previous Version | Text Only | Print | Product List | Glossary On
Versions: 1 2 3 4 5 6 7 8 9 10 11 12 13 14 15
000
FTUS45 KPIH 050520
TAFPIH
TAF
KPIH 050520Z 0506/0606 VRB05KT P6SM FEW100 SCT200
     FM051700 23011KT P6SM VCSH SCT080 BKN100
     FM051900 25015G25KT P6SM VCTS BKN080CB OVC110
     FM060200 23015KT P6SM FEW070 BKN200=

USA.gov is the U.S. government's official web portal to all federal, state and local government web resources and services.